SBOSBO EWR / KEWR
Speedbird OnlineSpeedbird Online EWR / KEWR

Newark Liberty International Airport
04:51 22.2°C

Location Newark, United States
Latitude: 40.692501068115234
Longitude: -74.168701171875
Local Time 04:51 on 18 Jul 2024
UTC -4 hours (America/New_York)
Currency £1 equals USD 1.30
METAR KEWR 180751Z 27006KT 10SM FEW008 FEW060 SCT120 BKN160 23/21 A2982 RMK AO2 SLP098 T02330211
TAF KEWR 180830Z 1809/1912 28005KT P6SM SCT025 TEMPO 1809/1812 BKN025 FM181200 33008KT P6SM SCT025 BKN100 FM181900 31009KT P6SM SCT050 SCT250 FM190200 35008KT P6SM SCT250
Weather As Of 18 Jul 2024 04:51
Description Mist
Wind 11 km/h from West (270°)
Cloud Cover 75%
Precipitation Rain: none, Snow: none
Sunrise 05:41
Sunset 20:24
NOTAM 35 active NOTAM
Rebooking Northeast Winter Weather- 10FEB24 - Customer Guidelines
Rotations During the last 90 days there were
164 flights from LHR
1 flights from BGR
167 flights to LHR
Lounges American Airlines Admirals Club, Terminal A - Mezzanine Level
British Airways Lounge , Terminal B
Web Airport Website | Wikipedia
Codes IATA: EWR
ICAO: KEWR
Altitude 5 Meter / 18 Feet
Distance 5,599 KM / 3,479 Miles
from London.
Runways
RunwayLength (m)Surface
04L3353Asphalt
04R3048Asphalt
112073Partial
22L3048Asphalt
22R3353Asphalt
292073Partial
Radio
TypeDescriptionFrequency
APPNEW YORK APP127.6
ATISATIS115.7
CLDCLNC DEL118.85
DEPNEW YORK DEP119.2
GNDGND121.8
TWRTWR118.3
UNICUNICOM122.95
Live ATC



Support Speedbird Online

© 2017-2024 Speedbird Online